sensor_id;sensor_type;location;lat;lon;timestamp;temperature;humidity
65378;SHT31;51982;51.042;13.806;2023-04-06T00:00:01;6.89;69.82
65378;SHT31;51982;51.042;13.806;2023-04-06T00:02:26;6.90;69.72
65378;SHT31;51982;51.042;13.806;2023-04-06T00:04:52;6.89;69.91
65378;SHT31;51982;51.042;13.806;2023-04-06T00:07:17;6.83;69.92
65378;SHT31;51982;51.042;13.806;2023-04-06T00:09:42;6.86;70.10
65378;SHT31;51982;51.042;13.806;2023-04-06T00:12:07;6.85;70.10
65378;SHT31;51982;51.042;13.806;2023-04-06T00:14:32;6.82;69.88
65378;SHT31;51982;51.042;13.806;2023-04-06T00:16:58;6.77;70.07
65378;SHT31;51982;51.042;13.806;2023-04-06T00:19:23;6.77;70.12
65378;SHT31;51982;51.042;13.806;2023-04-06T00:21:48;6.76;69.93
65378;SHT31;51982;51.042;13.806;2023-04-06T00:24:13;6.75;69.83
65378;SHT31;51982;51.042;13.806;2023-04-06T00:26:39;6.66;70.08
65378;SHT31;51982;51.042;13.806;2023-04-06T00:29:04;6.56;70.07
65378;SHT31;51982;51.042;13.806;2023-04-06T00:31:29;6.50;70.17
65378;SHT31;51982;51.042;13.806;2023-04-06T00:33:54;6.45;70.39
65378;SHT31;51982;51.042;13.806;2023-04-06T00:36:20;6.41;70.41
65378;SHT31;51982;51.042;13.806;2023-04-06T00:38:45;6.34;70.46
65378;SHT31;51982;51.042;13.806;2023-04-06T00:41:11;6.29;70.57
65378;SHT31;51982;51.042;13.806;2023-04-06T00:43:36;6.26;70.64
65378;SHT31;51982;51.042;13.806;2023-04-06T00:46:01;6.20;70.85
65378;SHT31;51982;51.042;13.806;2023-04-06T00:48:27;6.20;70.92
65378;SHT31;51982;51.042;13.806;2023-04-06T00:50:52;6.14;71.02
65378;SHT31;51982;51.042;13.806;2023-04-06T00:53:17;6.11;71.27
65378;SHT31;51982;51.042;13.806;2023-04-06T00:55:42;6.10;71.29
65378;SHT31;51982;51.042;13.806;2023-04-06T00:58:08;6.11;71.34
65378;SHT31;51982;51.042;13.806;2023-04-06T01:00:33;6.12;71.47
65378;SHT31;51982;51.042;13.806;2023-04-06T01:02:58;6.12;71.48
65378;SHT31;51982;51.042;13.806;2023-04-06T01:05:23;6.17;71.30
65378;SHT31;51982;51.042;13.806;2023-04-06T01:07:49;6.21;71.29
65378;SHT31;51982;51.042;13.806;2023-04-06T01:10:27;6.21;71.17
65378;SHT31;51982;51.042;13.806;2023-04-06T01:12:53;6.24;70.97
65378;SHT31;51982;51.042;13.806;2023-04-06T01:15:19;6.15;70.77
65378;SHT31;51982;51.042;13.806;2023-04-06T01:17:45;6.08;71.05
65378;SHT31;51982;51.042;13.806;2023-04-06T01:20:11;6.04;71.14
65378;SHT31;51982;51.042;13.806;2023-04-06T01:22:36;5.98;71.34
65378;SHT31;51982;51.042;13.806;2023-04-06T01:25:01;6.01;71.61
65378;SHT31;51982;51.042;13.806;2023-04-06T01:27:26;6.04;71.52
65378;SHT31;51982;51.042;13.806;2023-04-06T01:29:53;6.04;71.25
65378;SHT31;51982;51.042;13.806;2023-04-06T01:32:18;6.01;71.23
65378;SHT31;51982;51.042;13.806;2023-04-06T01:34:43;5.97;71.22
65378;SHT31;51982;51.042;13.806;2023-04-06T01:37:09;5.91;71.43
65378;SHT31;51982;51.042;13.806;2023-04-06T01:39:34;5.91;71.54
65378;SHT31;51982;51.042;13.806;2023-04-06T01:41:59;5.93;71.58
65378;SHT31;51982;51.042;13.806;2023-04-06T01:44:24;5.95;71.34
65378;SHT31;51982;51.042;13.806;2023-04-06T01:46:50;5.84;71.42
65378;SHT31;51982;51.042;13.806;2023-04-06T01:49:15;5.78;71.53
65378;SHT31;51982;51.042;13.806;2023-04-06T01:51:40;5.74;71.80
65378;SHT31;51982;51.042;13.806;2023-04-06T01:54:06;5.77;71.82
65378;SHT31;51982;51.042;13.806;2023-04-06T01:56:31;5.81;71.61
65378;SHT31;51982;51.042;13.806;2023-04-06T01:58:56;5.81;71.50
65378;SHT31;51982;51.042;13.806;2023-04-06T02:01:21;5.77;71.41
65378;SHT31;51982;51.042;13.806;2023-04-06T02:03:47;5.71;71.69
65378;SHT31;51982;51.042;13.806;2023-04-06T02:06:12;5.74;71.82
65378;SHT31;51982;51.042;13.806;2023-04-06T02:08:37;5.75;71.86
65378;SHT31;51982;51.042;13.806;2023-04-06T02:11:02;5.75;71.69
65378;SHT31;51982;51.042;13.806;2023-04-06T02:13:27;5.75;71.61
65378;SHT31;51982;51.042;13.806;2023-04-06T02:15:53;5.78;71.41
65378;SHT31;51982;51.042;13.806;2023-04-06T02:18:18;5.73;71.81
65378;SHT31;51982;51.042;13.806;2023-04-06T02:20:43;5.70;71.83
65378;SHT31;51982;51.042;13.806;2023-04-06T02:23:09;5.71;71.81
65378;SHT31;51982;51.042;13.806;2023-04-06T02:25:34;5.71;71.90
65378;SHT31;51982;51.042;13.806;2023-04-06T02:28:00;5.73;71.78
65378;SHT31;51982;51.042;13.806;2023-04-06T02:30:25;5.73;71.64
65378;SHT31;51982;51.042;13.806;2023-04-06T02:32:50;5.67;71.83
65378;SHT31;51982;51.042;13.806;2023-04-06T02:35:15;5.67;71.91
65378;SHT31;51982;51.042;13.806;2023-04-06T02:37:41;5.64;72.20
65378;SHT31;51982;51.042;13.806;2023-04-06T02:40:06;5.64;71.83
65378;SHT31;51982;51.042;13.806;2023-04-06T02:42:32;5.54;71.81
65378;SHT31;51982;51.042;13.806;2023-04-06T02:44:57;5.49;72.34
65378;SHT31;51982;51.042;13.806;2023-04-06T02:47:23;5.49;72.49
65378;SHT31;51982;51.042;13.806;2023-04-06T02:49:48;5.47;72.49
65378;SHT31;51982;51.042;13.806;2023-04-06T02:52:13;5.50;72.44
65378;SHT31;51982;51.042;13.806;2023-04-06T02:54:38;5.50;72.21
65378;SHT31;51982;51.042;13.806;2023-04-06T02:57:03;5.46;72.22
65378;SHT31;51982;51.042;13.806;2023-04-06T02:59:29;5.47;72.10
65378;SHT31;51982;51.042;13.806;2023-04-06T03:01:54;5.42;72.18
65378;SHT31;51982;51.042;13.806;2023-04-06T03:04:20;5.36;72.20
65378;SHT31;51982;51.042;13.806;2023-04-06T03:06:47;5.35;72.16
65378;SHT31;51982;51.042;13.806;2023-04-06T03:09:12;5.30;72.33
65378;SHT31;51982;51.042;13.806;2023-04-06T03:11:39;5.25;72.56
65378;SHT31;51982;51.042;13.806;2023-04-06T03:14:04;5.25;72.52
65378;SHT31;51982;51.042;13.806;2023-04-06T03:16:29;5.23;72.62
65378;SHT31;51982;51.042;13.806;2023-04-06T03:18:54;5.22;72.60
65378;SHT31;51982;51.042;13.806;2023-04-06T03:21:20;5.16;72.77
65378;SHT31;51982;51.042;13.806;2023-04-06T03:23:45;5.20;72.68
65378;SHT31;51982;51.042;13.806;2023-04-06T03:26:10;5.13;72.67
65378;SHT31;51982;51.042;13.806;2023-04-06T03:28:36;5.12;72.94
65378;SHT31;51982;51.042;13.806;2023-04-06T03:31:01;5.11;72.92
65378;SHT31;51982;51.042;13.806;2023-04-06T03:33:26;5.04;73.08
65378;SHT31;51982;51.042;13.806;2023-04-06T03:35:54;5.04;73.15
65378;SHT31;51982;51.042;13.806;2023-04-06T03:38:20;5.05;73.26
65378;SHT31;51982;51.042;13.806;2023-04-06T03:40:45;5.06;73.18
65378;SHT31;51982;51.042;13.806;2023-04-06T03:43:10;5.00;73.58
65378;SHT31;51982;51.042;13.806;2023-04-06T03:45:35;4.93;73.67
65378;SHT31;51982;51.042;13.806;2023-04-06T03:48:01;4.88;73.56
65378;SHT31;51982;51.042;13.806;2023-04-06T03:50:26;4.87;73.59
65378;SHT31;51982;51.042;13.806;2023-04-06T03:52:51;4.79;73.80
65378;SHT31;51982;51.042;13.806;2023-04-06T03:55:16;4.87;73.74
65378;SHT31;51982;51.042;13.806;2023-04-06T03:57:42;4.87;73.56
65378;SHT31;51982;51.042;13.806;2023-04-06T04:00:07;4.88;73.53
65378;SHT31;51982;51.042;13.806;2023-04-06T04:02:33;4.88;73.43
65378;SHT31;51982;51.042;13.806;2023-04-06T04:04:58;4.89;73.40
65378;SHT31;51982;51.042;13.806;2023-04-06T04:07:23;4.91;73.45
65378;SHT31;51982;51.042;13.806;2023-04-06T04:09:48;4.95;73.30
65378;SHT31;51982;51.042;13.806;2023-04-06T04:12:13;4.95;73.03
65378;SHT31;51982;51.042;13.806;2023-04-06T04:14:40;4.92;72.93
65378;SHT31;51982;51.042;13.806;2023-04-06T04:17:05;4.85;73.12
65378;SHT31;51982;51.042;13.806;2023-04-06T04:19:30;4.81;73.19
65378;SHT31;51982;51.042;13.806;2023-04-06T04:21:55;4.74;73.37
65378;SHT31;51982;51.042;13.806;2023-04-06T04:24:21;4.72;73.45
65378;SHT31;51982;51.042;13.806;2023-04-06T04:26:46;4.68;73.57
65378;SHT31;51982;51.042;13.806;2023-04-06T04:29:11;4.62;73.76
65378;SHT31;51982;51.042;13.806;2023-04-06T04:31:36;4.64;73.71
65378;SHT31;51982;51.042;13.806;2023-04-06T04:34:02;4.67;73.57
65378;SHT31;51982;51.042;13.806;2023-04-06T04:36:27;4.62;73.66
65378;SHT31;51982;51.042;13.806;2023-04-06T04:38:52;4.57;73.64
65378;SHT31;51982;51.042;13.806;2023-04-06T04:41:17;4.54;73.93
65378;SHT31;51982;51.042;13.806;2023-04-06T04:43:43;4.57;73.77
65378;SHT31;51982;51.042;13.806;2023-04-06T04:46:08;4.54;73.96
65378;SHT31;51982;51.042;13.806;2023-04-06T04:48:33;4.57;74.09
65378;SHT31;51982;51.042;13.806;2023-04-06T04:50:59;4.58;74.08
65378;SHT31;51982;51.042;13.806;2023-04-06T04:53:25;4.60;73.73
65378;SHT31;51982;51.042;13.806;2023-04-06T04:55:50;4.54;73.90
65378;SHT31;51982;51.042;13.806;2023-04-06T04:58:15;4.53;74.08
65378;SHT31;51982;51.042;13.806;2023-04-06T05:00:44;4.50;74.41
65378;SHT31;51982;51.042;13.806;2023-04-06T05:03:16;4.38;74.42
65378;SHT31;51982;51.042;13.806;2023-04-06T05:05:43;4.47;74.39
65378;SHT31;51982;51.042;13.806;2023-04-06T05:08:08;4.53;74.26
65378;SHT31;51982;51.042;13.806;2023-04-06T05:10:34;4.60;74.12
65378;SHT31;51982;51.042;13.806;2023-04-06T05:13:00;4.57;74.42
65378;SHT31;51982;51.042;13.806;2023-04-06T05:15:25;4.58;74.37
65378;SHT31;51982;51.042;13.806;2023-04-06T05:17:50;4.68;74.18
65378;SHT31;51982;51.042;13.806;2023-04-06T05:20:16;4.82;73.88
65378;SHT31;51982;51.042;13.806;2023-04-06T05:22:41;4.85;73.87
65378;SHT31;51982;51.042;13.806;2023-04-06T05:25:07;4.96;73.88
65378;SHT31;51982;51.042;13.806;2023-04-06T05:27:32;4.98;73.73
65378;SHT31;51982;51.042;13.806;2023-04-06T05:29:57;5.09;73.64
65378;SHT31;51982;51.042;13.806;2023-04-06T05:32:22;5.20;73.36
65378;SHT31;51982;51.042;13.806;2023-04-06T05:34:49;5.25;73.30
65378;SHT31;51982;51.042;13.806;2023-04-06T05:37:15;5.25;76.73
65378;SHT31;51982;51.042;13.806;2023-04-06T05:39:40;5.32;73.52
65378;SHT31;51982;51.042;13.806;2023-04-06T05:42:06;5.35;73.30
65378;SHT31;51982;51.042;13.806;2023-04-06T05:44:31;5.39;73.34
65378;SHT31;51982;51.042;13.806;2023-04-06T05:46:56;5.40;73.20
65378;SHT31;51982;51.042;13.806;2023-04-06T05:49:22;5.49;73.19
65378;SHT31;51982;51.042;13.806;2023-04-06T05:51:47;5.53;72.85
65378;SHT31;51982;51.042;13.806;2023-04-06T05:54:12;5.57;72.88
65378;SHT31;51982;51.042;13.806;2023-04-06T05:56:37;5.59;72.68
65378;SHT31;51982;51.042;13.806;2023-04-06T05:59:02;5.64;72.83
65378;SHT31;51982;51.042;13.806;2023-04-06T06:01:28;5.71;72.37
65378;SHT31;51982;51.042;13.806;2023-04-06T06:03:54;5.75;72.48
65378;SHT31;51982;51.042;13.806;2023-04-06T06:06:19;5.77;72.33
65378;SHT31;51982;51.042;13.806;2023-04-06T06:08:45;5.78;72.13
65378;SHT31;51982;51.042;13.806;2023-04-06T06:11:10;5.78;72.25
65378;SHT31;51982;51.042;13.806;2023-04-06T06:13:36;5.83;72.12
65378;SHT31;51982;51.042;13.806;2023-04-06T06:16:01;5.83;72.00
65378;SHT31;51982;51.042;13.806;2023-04-06T06:18:30;5.83;71.98
65378;SHT31;51982;51.042;13.806;2023-04-06T06:20:55;5.83;72.12
65378;SHT31;51982;51.042;13.806;2023-04-06T06:23:20;5.81;72.42
65378;SHT31;51982;51.042;13.806;2023-04-06T06:25:46;5.84;71.88
65378;SHT31;51982;51.042;13.806;2023-04-06T06:28:11;5.80;72.53
65378;SHT31;51982;51.042;13.806;2023-04-06T06:30:36;5.98;71.95
65378;SHT31;51982;51.042;13.806;2023-04-06T06:33:01;6.08;71.60
65378;SHT31;51982;51.042;13.806;2023-04-06T06:35:26;6.12;71.38
65378;SHT31;51982;51.042;13.806;2023-04-06T06:37:52;6.15;71.52
65378;SHT31;51982;51.042;13.806;2023-04-06T06:40:17;6.14;71.90
65378;SHT31;51982;51.042;13.806;2023-04-06T06:42:42;6.21;71.77
65378;SHT31;51982;51.042;13.806;2023-04-06T06:45:09;6.36;71.40
65378;SHT31;51982;51.042;13.806;2023-04-06T06:47:35;6.46;71.17
65378;SHT31;51982;51.042;13.806;2023-04-06T06:50:00;6.55;70.82
65378;SHT31;51982;51.042;13.806;2023-04-06T06:52:26;6.56;71.04
65378;SHT31;51982;51.042;13.806;2023-04-06T06:54:51;6.53;70.84
65378;SHT31;51982;51.042;13.806;2023-04-06T06:57:16;6.56;71.22
65378;SHT31;51982;51.042;13.806;2023-04-06T06:59:41;6.68;71.12
65378;SHT31;51982;51.042;13.806;2023-04-06T07:02:06;6.68;70.35
65378;SHT31;51982;51.042;13.806;2023-04-06T07:04:32;6.57;70.94
65378;SHT31;51982;51.042;13.806;2023-04-06T07:06:57;6.57;70.91
65378;SHT31;51982;51.042;13.806;2023-04-06T07:09:22;6.63;70.91
65378;SHT31;51982;51.042;13.806;2023-04-06T07:11:47;6.73;70.18
65378;SHT31;51982;51.042;13.806;2023-04-06T07:14:15;6.71;70.57
65378;SHT31;51982;51.042;13.806;2023-04-06T07:16:40;6.66;70.62
65378;SHT31;51982;51.042;13.806;2023-04-06T07:19:06;6.71;70.78
65378;SHT31;51982;51.042;13.806;2023-04-06T07:21:31;6.83;70.52
65378;SHT31;51982;51.042;13.806;2023-04-06T07:23:56;6.87;70.54
65378;SHT31;51982;51.042;13.806;2023-04-06T07:26:22;6.93;70.27
65378;SHT31;51982;51.042;13.806;2023-04-06T07:28:47;6.99;70.21
65378;SHT31;51982;51.042;13.806;2023-04-06T07:31:12;7.00;69.93
65378;SHT31;51982;51.042;13.806;2023-04-06T07:33:37;7.01;70.12
65378;SHT31;51982;51.042;13.806;2023-04-06T07:36:03;7.11;70.32
65378;SHT31;51982;51.042;13.806;2023-04-06T07:38:28;7.10;69.79
65378;SHT31;51982;51.042;13.806;2023-04-06T07:40:53;7.20;70.45
65378;SHT31;51982;51.042;13.806;2023-04-06T07:43:18;7.21;69.98
65378;SHT31;51982;51.042;13.806;2023-04-06T07:45:44;7.28;69.76
65378;SHT31;51982;51.042;13.806;2023-04-06T07:48:09;7.35;69.80
65378;SHT31;51982;51.042;13.806;2023-04-06T07:50:35;7.38;69.37
65378;SHT31;51982;51.042;13.806;2023-04-06T07:53:00;7.45;68.75
65378;SHT31;51982;51.042;13.806;2023-04-06T07:55:26;7.47;69.12
65378;SHT31;51982;51.042;13.806;2023-04-06T07:57:51;7.52;69.08
65378;SHT31;51982;51.042;13.806;2023-04-06T08:00:16;7.55;69.06
65378;SHT31;51982;51.042;13.806;2023-04-06T08:02:42;7.65;69.02
65378;SHT31;51982;51.042;13.806;2023-04-06T08:05:07;7.68;68.92
65378;SHT31;51982;51.042;13.806;2023-04-06T08:07:33;7.74;68.46
65378;SHT31;51982;51.042;13.806;2023-04-06T08:09:58;7.79;68.52
65378;SHT31;51982;51.042;13.806;2023-04-06T08:12:23;7.85;68.14
65378;SHT31;51982;51.042;13.806;2023-04-06T08:14:49;7.89;67.73
65378;SHT31;51982;51.042;13.806;2023-04-06T08:17:14;7.86;67.26
65378;SHT31;51982;51.042;13.806;2023-04-06T08:19:39;7.95;67.27
65378;SHT31;51982;51.042;13.806;2023-04-06T08:22:06;8.02;67.10
65378;SHT31;51982;51.042;13.806;2023-04-06T08:24:32;8.06;67.08
65378;SHT31;51982;51.042;13.806;2023-04-06T08:26:57;8.09;66.22
65378;SHT31;51982;51.042;13.806;2023-04-06T08:29:22;8.10;66.14
65378;SHT31;51982;51.042;13.806;2023-04-06T08:31:47;8.16;65.38
65378;SHT31;51982;51.042;13.806;2023-04-06T08:34:13;8.22;64.60
65378;SHT31;51982;51.042;13.806;2023-04-06T08:36:38;8.26;63.47
65378;SHT31;51982;51.042;13.806;2023-04-06T08:39:03;8.32;61.98
65378;SHT31;51982;51.042;13.806;2023-04-06T08:41:28;8.33;62.06
65378;SHT31;51982;51.042;13.806;2023-04-06T08:44:01;8.41;63.23
65378;SHT31;51982;51.042;13.806;2023-04-06T08:46:28;8.44;63.36
65378;SHT31;51982;51.042;13.806;2023-04-06T08:49:05;8.46;62.58
65378;SHT31;51982;51.042;13.806;2023-04-06T08:51:46;8.61;67.84
65378;SHT31;51982;51.042;13.806;2023-04-06T08:54:12;8.63;66.54
65378;SHT31;51982;51.042;13.806;2023-04-06T08:56:38;8.59;67.42
65378;SHT31;51982;51.042;13.806;2023-04-06T08:59:04;8.60;67.15
65378;SHT31;51982;51.042;13.806;2023-04-06T09:01:30;8.64;64.50
65378;SHT31;51982;51.042;13.806;2023-04-06T09:03:58;8.71;66.52
65378;SHT31;51982;51.042;13.806;2023-04-06T09:06:25;8.73;66.11
65378;SHT31;51982;51.042;13.806;2023-04-06T09:08:53;8.75;63.38
65378;SHT31;51982;51.042;13.806;2023-04-06T09:13:14;8.80;63.44
65378;SHT31;51982;51.042;13.806;2023-04-06T09:15:40;8.87;63.30
65378;SHT31;51982;51.042;13.806;2023-04-06T09:18:05;8.87;63.60
65378;SHT31;51982;51.042;13.806;2023-04-06T09:20:30;8.92;64.12
65378;SHT31;51982;51.042;13.806;2023-04-06T09:22:56;8.94;65.02
65378;SHT31;51982;51.042;13.806;2023-04-06T09:25:22;8.95;64.25
65378;SHT31;51982;51.042;13.806;2023-04-06T09:27:48;9.01;62.93
65378;SHT31;51982;51.042;13.806;2023-04-06T09:30:15;9.05;63.72
65378;SHT31;51982;51.042;13.806;2023-04-06T09:32:49;9.14;64.60
65378;SHT31;51982;51.042;13.806;2023-04-06T09:35:15;9.25;65.11
65378;SHT31;51982;51.042;13.806;2023-04-06T09:37:42;9.26;62.59
65378;SHT31;51982;51.042;13.806;2023-04-06T09:40:08;9.29;61.09
65378;SHT31;51982;51.042;13.806;2023-04-06T09:42:34;9.25;59.50
65378;SHT31;51982;51.042;13.806;2023-04-06T09:45:03;9.29;59.94
65378;SHT31;51982;51.042;13.806;2023-04-06T09:47:30;9.31;59.76
65378;SHT31;51982;51.042;13.806;2023-04-06T09:49:58;9.31;60.92
65378;SHT31;51982;51.042;13.806;2023-04-06T09:52:26;9.38;58.63
65378;SHT31;51982;51.042;13.806;2023-04-06T09:54:55;9.45;58.89
65378;SHT31;51982;51.042;13.806;2023-04-06T09:57:26;9.56;57.92
65378;SHT31;51982;51.042;13.806;2023-04-06T10:05:09;9.85;55.43
65378;SHT31;51982;51.042;13.806;2023-04-06T10:07:39;9.94;55.44
65378;SHT31;51982;51.042;13.806;2023-04-06T10:10:05;10.07;57.43
65378;SHT31;51982;51.042;13.806;2023-04-06T10:12:31;10.18;52.96
65378;SHT31;51982;51.042;13.806;2023-04-06T10:14:56;10.36;54.79
65378;SHT31;51982;51.042;13.806;2023-04-06T10:17:22;10.42;52.73
65378;SHT31;51982;51.042;13.806;2023-04-06T10:19:55;10.49;53.36
65378;SHT31;51982;51.042;13.806;2023-04-06T10:22:35;10.71;53.75
65378;SHT31;51982;51.042;13.806;2023-04-06T10:25:01;10.91;53.75
65378;SHT31;51982;51.042;13.806;2023-04-06T10:27:28;11.06;53.82
65378;SHT31;51982;51.042;13.806;2023-04-06T10:29:53;11.08;53.10
65378;SHT31;51982;51.042;13.806;2023-04-06T10:32:19;11.18;52.60
65378;SHT31;51982;51.042;13.806;2023-04-06T10:34:44;11.24;51.93
65378;SHT31;51982;51.042;13.806;2023-04-06T10:37:16;11.36;52.67
65378;SHT31;51982;51.042;13.806;2023-04-06T10:40:02;11.32;51.42
65378;SHT31;51982;51.042;13.806;2023-04-06T10:42:37;11.27;50.95
65378;SHT31;51982;51.042;13.806;2023-04-06T10:45:07;11.24;52.33
65378;SHT31;51982;51.042;13.806;2023-04-06T10:47:40;11.39;51.81
65378;SHT31;51982;51.042;13.806;2023-04-06T10:50:06;11.42;52.69
65378;SHT31;51982;51.042;13.806;2023-04-06T10:52:31;11.32;51.27
65378;SHT31;51982;51.042;13.806;2023-04-06T10:54:56;11.30;50.69
65378;SHT31;51982;51.042;13.806;2023-04-06T10:57:28;11.30;50.86
65378;SHT31;51982;51.042;13.806;2023-04-06T10:59:55;11.27;52.92
65378;SHT31;51982;51.042;13.806;2023-04-06T11:02:21;11.23;53.06
65378;SHT31;51982;51.042;13.806;2023-04-06T11:04:54;11.08;51.64
65378;SHT31;51982;51.042;13.806;2023-04-06T11:07:24;10.91;51.16
65378;SHT31;51982;51.042;13.806;2023-04-06T11:09:50;10.86;51.47
65378;SHT31;51982;51.042;13.806;2023-04-06T11:12:26;10.82;51.20
65378;SHT31;51982;51.042;13.806;2023-04-06T11:14:59;10.92;52.30
65378;SHT31;51982;51.042;13.806;2023-04-06T11:17:30;10.86;50.13
65378;SHT31;51982;51.042;13.806;2023-04-06T11:19:57;11.00;50.04
65378;SHT31;51982;51.042;13.806;2023-04-06T11:22:23;11.06;49.72
65378;SHT31;51982;51.042;13.806;2023-04-06T11:24:48;11.10;49.82
65378;SHT31;51982;51.042;13.806;2023-04-06T11:27:14;11.12;50.02
65378;SHT31;51982;51.042;13.806;2023-04-06T11:29:41;11.09;51.88
65378;SHT31;51982;51.042;13.806;2023-04-06T11:32:07;11.15;50.61
65378;SHT31;51982;51.042;13.806;2023-04-06T11:34:35;11.13;49.90
65378;SHT31;51982;51.042;13.806;2023-04-06T11:37:03;11.20;50.00
65378;SHT31;51982;51.042;13.806;2023-04-06T11:39:31;11.22;49.09
65378;SHT31;51982;51.042;13.806;2023-04-06T11:41:59;11.23;50.29
65378;SHT31;51982;51.042;13.806;2023-04-06T11:44:38;11.26;51.25
65378;SHT31;51982;51.042;13.806;2023-04-06T11:47:07;11.34;51.84
65378;SHT31;51982;51.042;13.806;2023-04-06T11:49:34;11.39;50.25
65378;SHT31;51982;51.042;13.806;2023-04-06T11:52:02;11.44;49.77
65378;SHT31;51982;51.042;13.806;2023-04-06T11:54:37;11.49;49.93
65378;SHT31;51982;51.042;13.806;2023-04-06T11:57:05;11.67;50.02
65378;SHT31;51982;51.042;13.806;2023-04-06T11:59:34;11.84;49.92
65378;SHT31;51982;51.042;13.806;2023-04-06T12:02:01;11.93;49.55
65378;SHT31;51982;51.042;13.806;2023-04-06T12:04:27;12.02;50.73
65378;SHT31;51982;51.042;13.806;2023-04-06T12:06:52;12.10;49.57
65378;SHT31;51982;51.042;13.806;2023-04-06T12:09:18;12.22;49.40
65378;SHT31;51982;51.042;13.806;2023-04-06T12:11:43;12.34;50.25
65378;SHT31;51982;51.042;13.806;2023-04-06T12:14:08;12.46;48.44
65378;SHT31;51982;51.042;13.806;2023-04-06T12:16:34;12.57;48.75
65378;SHT31;51982;51.042;13.806;2023-04-06T12:19:00;12.60;49.24
65378;SHT31;51982;51.042;13.806;2023-04-06T12:21:30;12.59;48.87
65378;SHT31;51982;51.042;13.806;2023-04-06T12:23:58;12.67;49.13
65378;SHT31;51982;51.042;13.806;2023-04-06T12:26:24;12.66;48.10
65378;SHT31;51982;51.042;13.806;2023-04-06T12:28:50;12.69;48.75
65378;SHT31;51982;51.042;13.806;2023-04-06T12:31:19;12.65;48.41
65378;SHT31;51982;51.042;13.806;2023-04-06T12:33:51;12.62;48.52
65378;SHT31;51982;51.042;13.806;2023-04-06T12:36:20;12.48;47.28
65378;SHT31;51982;51.042;13.806;2023-04-06T12:38:49;12.34;47.19
65378;SHT31;51982;51.042;13.806;2023-04-06T12:41:15;12.28;47.21
65378;SHT31;51982;51.042;13.806;2023-04-06T12:43:42;12.22;47.11
65378;SHT31;51982;51.042;13.806;2023-04-06T12:46:08;12.22;47.01
65378;SHT31;51982;51.042;13.806;2023-04-06T12:48:33;12.02;47.17
65378;SHT31;51982;51.042;13.806;2023-04-06T12:51:01;12.11;47.41
65378;SHT31;51982;51.042;13.806;2023-04-06T12:53:27;12.21;47.15
65378;SHT31;51982;51.042;13.806;2023-04-06T12:55:55;12.17;47.27
65378;SHT31;51982;51.042;13.806;2023-04-06T12:58:22;12.28;47.05
65378;SHT31;51982;51.042;13.806;2023-04-06T13:00:48;12.29;47.16
65378;SHT31;51982;51.042;13.806;2023-04-06T13:03:15;12.28;47.25
65378;SHT31;51982;51.042;13.806;2023-04-06T13:05:44;12.29;46.92
65378;SHT31;51982;51.042;13.806;2023-04-06T13:08:10;12.31;47.70
65378;SHT31;51982;51.042;13.806;2023-04-06T13:10:35;12.38;47.18
65378;SHT31;51982;51.042;13.806;2023-04-06T13:13:00;12.35;47.24
65378;SHT31;51982;51.042;13.806;2023-04-06T13:15:25;12.34;48.49
65378;SHT31;51982;51.042;13.806;2023-04-06T13:17:50;12.39;47.83
65378;SHT31;51982;51.042;13.806;2023-04-06T13:20:16;12.39;47.48
65378;SHT31;51982;51.042;13.806;2023-04-06T13:22:41;12.39;47.89
65378;SHT31;51982;51.042;13.806;2023-04-06T13:25:07;12.46;47.66
65378;SHT31;51982;51.042;13.806;2023-04-06T13:27:32;12.49;47.21
65378;SHT31;51982;51.042;13.806;2023-04-06T13:29:59;12.52;47.46
65378;SHT31;51982;51.042;13.806;2023-04-06T13:32:25;12.53;47.31
65378;SHT31;51982;51.042;13.806;2023-04-06T13:34:50;12.55;47.34
65378;SHT31;51982;51.042;13.806;2023-04-06T13:37:19;12.52;47.05
65378;SHT31;51982;51.042;13.806;2023-04-06T13:39:44;12.53;47.36
65378;SHT31;51982;51.042;13.806;2023-04-06T13:42:10;12.57;47.06
65378;SHT31;51982;51.042;13.806;2023-04-06T13:44:35;12.59;47.02
65378;SHT31;51982;51.042;13.806;2023-04-06T13:47:00;12.49;47.37
65378;SHT31;51982;51.042;13.806;2023-04-06T13:49:26;12.52;47.25
65378;SHT31;51982;51.042;13.806;2023-04-06T13:51:51;12.56;47.28
65378;SHT31;51982;51.042;13.806;2023-04-06T13:54:16;12.46;47.68
65378;SHT31;51982;51.042;13.806;2023-04-06T13:56:42;12.52;47.92
65378;SHT31;51982;51.042;13.806;2023-04-06T13:59:07;12.50;47.60
65378;SHT31;51982;51.042;13.806;2023-04-06T14:01:32;12.46;47.62
65378;SHT31;51982;51.042;13.806;2023-04-06T14:03:57;12.48;47.96
65378;SHT31;51982;51.042;13.806;2023-04-06T14:06:23;12.45;47.77
65378;SHT31;51982;51.042;13.806;2023-04-06T14:08:48;12.41;48.03
65378;SHT31;51982;51.042;13.806;2023-04-06T14:11:13;12.38;47.88
65378;SHT31;51982;51.042;13.806;2023-04-06T14:13:39;12.32;48.33
65378;SHT31;51982;51.042;13.806;2023-04-06T14:16:05;12.31;48.16
65378;SHT31;51982;51.042;13.806;2023-04-06T14:18:30;12.34;48.47
65378;SHT31;51982;51.042;13.806;2023-04-06T14:20:57;12.29;48.84
65378;SHT31;51982;51.042;13.806;2023-04-06T14:23:24;12.31;49.38
65378;SHT31;51982;51.042;13.806;2023-04-06T14:25:51;12.34;49.17
65378;SHT31;51982;51.042;13.806;2023-04-06T14:28:16;12.31;49.14
65378;SHT31;51982;51.042;13.806;2023-04-06T14:30:42;12.20;48.58
65378;SHT31;51982;51.042;13.806;2023-04-06T14:33:07;12.15;48.65
65378;SHT31;51982;51.042;13.806;2023-04-06T14:35:33;12.21;49.24
65378;SHT31;51982;51.042;13.806;2023-04-06T14:37:58;12.21;48.80
65378;SHT31;51982;51.042;13.806;2023-04-06T14:40:24;12.10;48.11
65378;SHT31;51982;51.042;13.806;2023-04-06T14:42:49;12.22;48.78
65378;SHT31;51982;51.042;13.806;2023-04-06T14:45:17;12.26;48.43
65378;SHT31;51982;51.042;13.806;2023-04-06T14:47:44;12.20;48.08
65378;SHT31;51982;51.042;13.806;2023-04-06T14:50:10;12.06;47.98
65378;SHT31;51982;51.042;13.806;2023-04-06T14:52:35;12.02;47.73
65378;SHT31;51982;51.042;13.806;2023-04-06T14:55:01;12.14;48.15
65378;SHT31;51982;51.042;13.806;2023-04-06T14:57:26;12.08;48.14
65378;SHT31;51982;51.042;13.806;2023-04-06T14:59:54;12.12;48.73
65378;SHT31;51982;51.042;13.806;2023-04-06T15:02:20;12.18;49.15
65378;SHT31;51982;51.042;13.806;2023-04-06T15:04:45;12.11;47.84
65378;SHT31;51982;51.042;13.806;2023-04-06T15:07:10;12.14;47.58
65378;SHT31;51982;51.042;13.806;2023-04-06T15:09:36;12.17;47.90
65378;SHT31;51982;51.042;13.806;2023-04-06T15:12:01;12.21;48.43
65378;SHT31;51982;51.042;13.806;2023-04-06T15:14:27;12.20;47.80
65378;SHT31;51982;51.042;13.806;2023-04-06T15:16:55;12.18;48.19
65378;SHT31;51982;51.042;13.806;2023-04-06T15:19:20;12.18;48.16
65378;SHT31;51982;51.042;13.806;2023-04-06T15:21:46;12.21;48.55
65378;SHT31;51982;51.042;13.806;2023-04-06T15:24:11;12.21;48.90